createdAt,value
2023-02-13T00:01:06.140Z,30.87
2023-02-13T00:03:35.607Z,28.73
2023-02-13T00:06:04.518Z,27.53
2023-02-13T00:08:35.288Z,28.77
2023-02-13T00:14:08.166Z,33.80
2023-02-13T00:16:55.648Z,28.47
2023-02-13T00:19:24.627Z,29.30
2023-02-13T00:24:59.769Z,35.90
2023-02-13T00:27:28.660Z,28.40
2023-02-13T00:29:57.487Z,28.60
2023-02-13T00:32:27.378Z,26.90
2023-02-13T00:34:57.314Z,30.03
2023-02-13T00:37:26.440Z,29.47
2023-02-13T00:39:56.513Z,28.40
2023-02-13T00:42:26.970Z,28.47
2023-02-13T00:44:55.909Z,29.37
2023-02-13T00:47:25.371Z,29.47
2023-02-13T00:49:54.232Z,30.60
2023-02-13T00:52:23.117Z,27.97
2023-02-13T00:54:52.408Z,30.87
2023-02-13T00:57:21.373Z,32.23
2023-02-13T00:59:51.876Z,30.20
2023-02-13T01:02:20.954Z,29.47
2023-02-13T01:04:49.876Z,28.83
2023-02-13T01:07:20.480Z,28.47
2023-02-13T01:09:49.559Z,30.30
2023-02-13T01:12:35.585Z,27.80
2023-02-13T01:15:06.992Z,29.43
2023-02-13T01:17:36.002Z,28.30
2023-02-13T01:20:05.158Z,29.23
2023-02-13T01:22:34.313Z,27.43
2023-02-13T01:25:03.254Z,32.10
2023-02-13T01:27:33.235Z,25.97
2023-02-13T01:30:02.735Z,29.57
2023-02-13T01:32:33.179Z,27.30
2023-02-13T01:35:02.197Z,30.20
2023-02-13T01:37:31.132Z,30.30
2023-02-13T01:40:00.852Z,28.87
2023-02-13T01:45:26.004Z,25.37
2023-02-13T01:47:59.222Z,25.73
2023-02-13T01:50:42.672Z,24.87
2023-02-13T01:53:17.822Z,25.20
2023-02-13T01:55:51.929Z,25.23
2023-02-13T01:58:44.027Z,25.03
2023-02-13T02:01:13.457Z,23.73
2023-02-13T02:03:48.765Z,22.50
2023-02-13T02:06:27.124Z,24.77
2023-02-13T02:09:00.490Z,23.33
2023-02-13T02:11:36.258Z,23.33
2023-02-13T02:16:54.025Z,22.40
2023-02-13T02:19:34.106Z,21.80
2023-02-13T02:22:53.488Z,22.57
2023-02-13T02:25:52.307Z,23.00
2023-02-13T02:28:58.350Z,21.53
2023-02-13T02:32:07.264Z,23.10
2023-02-13T02:34:49.736Z,22.13
2023-02-13T02:37:34.687Z,22.07
2023-02-13T02:40:12.889Z,22.70
2023-02-13T02:42:50.716Z,22.17
2023-02-13T02:45:45.286Z,23.43
2023-02-13T02:48:45.035Z,22.80
2023-02-13T02:51:23.643Z,22.47
2023-02-13T02:54:25.483Z,22.87
2023-02-13T02:56:57.903Z,23.63
2023-02-13T02:59:48.524Z,21.90
2023-02-13T03:02:36.292Z,24.50
2023-02-13T03:05:22.403Z,22.67
2023-02-13T03:07:52.864Z,24.17
2023-02-13T03:10:44.763Z,22.83
2023-02-13T03:16:34.464Z,21.10
2023-02-13T03:19:20.979Z,24.27
2023-02-13T03:22:13.752Z,21.57
2023-02-13T03:24:51.880Z,24.40
2023-02-13T03:27:44.390Z,25.23
2023-02-13T03:30:23.599Z,34.00
2023-02-13T03:33:24.395Z,36.77
2023-02-13T03:36:20.639Z,23.60
2023-02-13T03:38:57.383Z,22.40
2023-02-13T03:41:32.066Z,24.10
2023-02-13T03:44:08.340Z,22.03
2023-02-13T03:46:40.672Z,25.10
2023-02-13T03:52:42.920Z,23.87
2023-02-13T03:55:33.494Z,23.47
2023-02-13T04:01:14.462Z,27.67
2023-02-13T04:03:52.076Z,35.13
2023-02-13T04:06:26.875Z,49.57
2023-02-13T04:08:56.219Z,41.07
2023-02-13T04:11:30.215Z,42.47
2023-02-13T04:14:02.978Z,42.10
2023-02-13T04:16:36.190Z,33.83
2023-02-13T04:19:06.541Z,24.40
2023-02-13T04:21:36.320Z,22.63
2023-02-13T04:24:05.545Z,21.50
2023-02-13T04:26:37.824Z,21.23
2023-02-13T04:29:08.736Z,21.10
2023-02-13T04:31:37.921Z,21.10
2023-02-13T04:34:07.134Z,20.33
2023-02-13T04:36:36.159Z,19.87
2023-02-13T04:39:05.577Z,20.57
2023-02-13T04:41:34.682Z,19.23
2023-02-13T04:44:03.678Z,19.80
2023-02-13T04:46:51.312Z,22.33
2023-02-13T04:49:20.428Z,20.67
2023-02-13T04:51:49.405Z,17.57
2023-02-13T04:54:18.461Z,18.70
2023-02-13T04:57:04.628Z,17.13
2023-02-13T04:59:33.937Z,18.00
2023-02-13T05:02:22.872Z,17.70
2023-02-13T05:04:52.085Z,17.07
2023-02-13T05:07:38.461Z,18.30
2023-02-13T05:10:08.579Z,17.23
2023-02-13T05:12:37.653Z,17.03
2023-02-13T05:15:07.664Z,17.83
2023-02-13T05:17:38.213Z,18.00
2023-02-13T05:20:08.631Z,17.37
2023-02-13T05:22:54.940Z,17.47
2023-02-13T05:25:23.964Z,19.50
2023-02-13T05:27:52.976Z,19.00
2023-02-13T05:30:40.551Z,19.60
2023-02-13T05:33:11.015Z,19.47
2023-02-13T05:35:40.033Z,17.77
2023-02-13T05:38:09.832Z,17.27
2023-02-13T05:40:38.873Z,18.27
2023-02-13T05:43:07.868Z,19.93
2023-02-13T05:45:36.946Z,29.67
2023-02-13T05:50:54.060Z,18.50
2023-02-13T05:53:23.089Z,19.50
2023-02-13T05:55:52.522Z,18.13
2023-02-13T05:58:21.622Z,21.57
2023-02-13T06:00:50.882Z,19.23
2023-02-13T06:03:19.798Z,18.67
2023-02-13T06:05:48.870Z,20.73
2023-02-13T06:08:19.274Z,18.00
2023-02-13T06:10:48.793Z,19.23
2023-02-13T06:13:18.412Z,21.73
2023-02-13T06:15:47.901Z,21.80
2023-02-13T06:18:34.120Z,20.40
2023-02-13T06:21:21.267Z,19.27
2023-02-13T06:23:53.051Z,19.50
2023-02-13T06:26:22.042Z,23.43
2023-02-13T06:29:10.024Z,19.50
2023-02-13T06:31:56.336Z,21.27
2023-02-13T06:34:25.510Z,33.90
2023-02-13T06:36:54.506Z,42.33
2023-02-13T06:39:24.850Z,24.30
2023-02-13T06:41:53.981Z,23.57
2023-02-13T06:44:22.916Z,20.93
2023-02-13T06:46:51.932Z,19.60
2023-02-13T06:52:07.898Z,18.30
2023-02-13T06:54:57.317Z,20.83
2023-02-13T06:57:27.194Z,18.83
2023-02-13T06:59:56.190Z,20.13
2023-02-13T07:02:25.295Z,21.23
2023-02-13T07:04:54.291Z,22.87
2023-02-13T07:07:23.350Z,18.23
2023-02-13T07:09:52.320Z,20.03
2023-02-13T07:15:09.700Z,18.47
2023-02-13T07:17:38.703Z,17.73
2023-02-13T07:20:09.335Z,17.90
2023-02-13T07:22:38.452Z,17.97
2023-02-13T07:25:08.069Z,22.73
2023-02-13T07:27:55.777Z,19.60
2023-02-13T07:30:24.786Z,21.63
2023-02-13T07:32:53.882Z,18.93
2023-02-13T07:35:22.905Z,21.23
2023-02-13T07:37:51.845Z,17.10
2023-02-13T07:40:21.110Z,18.83
2023-02-13T07:42:51.639Z,17.90
2023-02-13T07:45:39.263Z,23.80
2023-02-13T07:50:55.763Z,15.33
2023-02-13T07:53:25.177Z,16.53
2023-02-13T07:55:54.134Z,16.63
2023-02-13T07:58:24.890Z,19.20
2023-02-13T08:01:11.384Z,16.83
2023-02-13T08:03:43.694Z,20.17
2023-02-13T08:06:15.450Z,20.73
2023-02-13T08:08:44.522Z,22.43
2023-02-13T08:11:42.605Z,17.67
2023-02-13T08:14:13.148Z,15.57
2023-02-13T08:16:42.664Z,13.50
2023-02-13T08:19:11.701Z,14.77
2023-02-13T08:24:27.340Z,15.90
2023-02-13T08:26:57.917Z,13.87
2023-02-13T08:29:28.460Z,19.97
2023-02-13T08:31:57.625Z,16.20
2023-02-13T08:34:26.744Z,13.10
2023-02-13T08:37:31.319Z,15.83
2023-02-13T08:40:00.493Z,16.13
2023-02-13T08:42:29.583Z,13.13
2023-02-13T08:45:00.119Z,14.47
2023-02-13T08:47:46.620Z,17.37
2023-02-13T08:50:33.398Z,12.57
2023-02-13T08:53:04.698Z,11.77
2023-02-13T08:55:55.891Z,15.50
2023-02-13T08:58:25.522Z,16.57
2023-02-13T09:00:56.062Z,12.93
2023-02-13T09:03:25.466Z,16.10
2023-02-13T09:05:54.625Z,14.33
2023-02-13T09:08:24.674Z,14.53
2023-02-13T09:10:58.449Z,12.23
2023-02-13T09:13:27.975Z,12.20
2023-02-13T09:16:01.088Z,10.93
2023-02-13T09:18:30.680Z,10.93
2023-02-13T09:21:01.442Z,10.60
2023-02-13T09:23:33.040Z,10.30
2023-02-13T09:26:02.867Z,10.70
2023-02-13T09:31:22.037Z,16.47
2023-02-13T09:33:51.370Z,13.47
2023-02-13T09:36:40.011Z,14.67
2023-02-13T09:39:09.193Z,12.50
2023-02-13T09:41:40.768Z,11.93
2023-02-13T09:44:34.235Z,12.67
2023-02-13T09:47:08.022Z,13.50
2023-02-13T09:49:58.881Z,10.30
2023-02-13T09:52:33.733Z,10.37
2023-02-13T09:55:21.131Z,11.97
2023-02-13T09:57:59.314Z,9.87
2023-02-13T10:00:53.366Z,10.80
2023-02-13T10:03:30.745Z,12.00
2023-02-13T10:06:09.715Z,11.30
2023-02-13T10:08:51.664Z,13.90
2023-02-13T10:11:31.115Z,10.93
2023-02-13T10:14:08.277Z,14.33
2023-02-13T10:19:37.657Z,13.17
2023-02-13T10:22:12.060Z,11.10
2023-02-13T10:24:45.769Z,11.07
2023-02-13T10:27:23.360Z,10.47
2023-02-13T10:30:12.883Z,11.20
2023-02-13T10:33:13.556Z,11.03
2023-02-13T10:35:47.183Z,13.13
2023-02-13T10:38:18.619Z,12.83
2023-02-13T10:44:04.232Z,10.77
2023-02-13T10:46:42.179Z,11.43
2023-02-13T10:49:48.081Z,13.17
2023-02-13T10:55:30.841Z,12.67
2023-02-13T10:58:09.714Z,14.03
2023-02-13T11:00:43.676Z,13.60
2023-02-13T11:06:14.234Z,12.23
2023-02-13T11:08:48.725Z,11.30
2023-02-13T11:11:35.910Z,14.07
2023-02-13T11:14:13.613Z,10.90
2023-02-13T11:16:50.243Z,12.07
2023-02-13T11:22:13.720Z,15.20
2023-02-13T11:24:54.644Z,12.83
2023-02-13T11:27:28.818Z,11.97
2023-02-13T11:29:59.653Z,12.47
2023-02-13T11:32:29.828Z,12.73
2023-02-13T11:35:01.003Z,12.30
2023-02-13T11:37:32.041Z,10.60
2023-02-13T11:43:34.941Z,11.57
2023-02-13T11:46:06.655Z,14.07
2023-02-13T11:48:36.442Z,12.43
2023-02-13T11:51:06.355Z,13.43
2023-02-13T11:53:40.177Z,13.37
2023-02-13T11:56:14.284Z,15.87
2023-02-13T11:58:44.623Z,13.40
2023-02-13T12:01:29.885Z,15.40
2023-02-13T12:04:04.366Z,10.97
2023-02-13T12:06:40.062Z,13.93
2023-02-13T12:09:16.281Z,9.03
2023-02-13T12:14:44.475Z,10.47
2023-02-13T12:17:30.801Z,10.23
2023-02-13T12:20:01.069Z,9.30
2023-02-13T12:25:47.969Z,12.03
2023-02-13T12:28:21.976Z,11.10
2023-02-13T12:31:29.340Z,12.83
2023-02-13T12:34:26.804Z,11.27
2023-02-13T12:37:07.217Z,10.77
2023-02-13T12:39:55.807Z,11.80
2023-02-13T12:42:38.513Z,11.03
2023-02-13T12:45:33.661Z,15.40
2023-02-13T12:48:34.561Z,11.60
2023-02-13T12:51:39.450Z,11.57
2023-02-13T12:54:26.274Z,13.07
2023-02-13T12:57:06.814Z,11.77
2023-02-13T12:59:54.463Z,12.30
2023-02-13T13:03:11.122Z,12.20
2023-02-13T13:06:19.853Z,11.40
2023-02-13T13:09:18.589Z,11.47
2023-02-13T13:12:15.185Z,11.73
2023-02-13T13:14:53.010Z,12.05
2023-02-13T13:20:52.316Z,11.73
2023-02-13T13:23:25.476Z,14.20
2023-02-13T13:26:03.601Z,12.63
2023-02-13T13:28:39.273Z,15.07
2023-02-13T13:31:09.559Z,14.40
2023-02-13T13:34:00.410Z,13.47
2023-02-13T13:36:42.214Z,14.13
2023-02-13T13:39:22.060Z,14.43
2023-02-13T13:41:58.763Z,13.50
2023-02-13T13:44:43.614Z,13.13
2023-02-13T13:47:43.005Z,12.73
2023-02-13T13:50:21.726Z,13.13
2023-02-13T13:53:14.901Z,13.20
2023-02-13T13:56:05.303Z,13.43
2023-02-13T13:58:45.969Z,14.87
2023-02-13T14:04:40.275Z,13.50
2023-02-13T14:07:25.692Z,13.40
2023-02-13T14:09:56.093Z,12.93
2023-02-13T14:12:49.242Z,12.40
2023-02-13T14:15:53.540Z,14.00
2023-02-13T14:18:24.520Z,18.17
2023-02-13T14:20:55.129Z,13.73
2023-02-13T14:23:53.573Z,12.97
2023-02-13T14:27:05.246Z,14.70
2023-02-13T14:29:35.959Z,13.93
2023-02-13T14:32:09.851Z,13.93
2023-02-13T14:34:41.099Z,14.30
2023-02-13T14:37:29.953Z,16.70
2023-02-13T14:40:32.191Z,13.33
2023-02-13T14:43:20.279Z,13.77
2023-02-13T14:45:55.126Z,14.00
2023-02-13T14:48:35.074Z,13.53
2023-02-13T14:51:05.498Z,16.07
2023-02-13T14:53:48.684Z,14.20
2023-02-13T14:56:38.889Z,14.70
2023-02-13T14:59:16.112Z,15.20
2023-02-13T15:01:52.734Z,14.27
2023-02-13T15:04:27.865Z,15.00
2023-02-13T15:06:59.154Z,14.13
2023-02-13T15:09:39.115Z,13.93
2023-02-13T15:12:26.366Z,16.73
2023-02-13T15:14:57.214Z,16.27
2023-02-13T15:17:30.479Z,15.03
2023-02-13T15:20:06.225Z,14.20
2023-02-13T15:22:37.640Z,14.60
2023-02-13T15:25:08.715Z,14.40
2023-02-13T15:27:42.295Z,16.13
2023-02-13T15:30:24.002Z,17.57
2023-02-13T15:32:57.393Z,15.07
2023-02-13T15:35:31.119Z,14.53
2023-02-13T15:38:01.982Z,15.00
2023-02-13T15:40:50.919Z,14.07
2023-02-13T15:43:24.690Z,16.27
2023-02-13T15:45:56.362Z,21.97
2023-02-13T15:48:25.347Z,14.33
2023-02-13T15:50:54.333Z,14.83
2023-02-13T15:53:41.167Z,17.10
2023-02-13T15:56:16.530Z,15.87
2023-02-13T15:58:46.318Z,15.33
2023-02-13T16:01:18.069Z,16.37
2023-02-13T16:03:49.461Z,16.80
2023-02-13T16:06:20.452Z,16.57
2023-02-13T16:08:54.557Z,13.70
2023-02-13T16:11:32.463Z,16.20
2023-02-13T16:14:14.267Z,16.40
2023-02-13T16:16:51.387Z,17.57
2023-02-13T16:19:32.393Z,16.77
2023-02-13T16:22:06.530Z,17.17
2023-02-13T16:24:35.518Z,19.53
2023-02-13T16:27:04.617Z,21.10
2023-02-13T16:29:33.968Z,20.53
2023-02-13T16:32:32.599Z,21.23
2023-02-13T16:35:30.090Z,20.13
2023-02-13T16:38:02.655Z,20.70
2023-02-13T16:40:38.590Z,20.83
2023-02-13T16:43:44.431Z,21.10
2023-02-13T16:46:22.629Z,20.97
2023-02-13T16:49:05.829Z,24.87
2023-02-13T16:51:39.062Z,27.93
2023-02-13T16:54:17.895Z,22.53
2023-02-13T16:56:49.595Z,21.60
2023-02-13T16:59:53.882Z,27.10
2023-02-13T17:02:25.424Z,52.60
2023-02-13T17:04:59.599Z,33.37
2023-02-13T17:07:47.341Z,29.07
2023-02-13T17:10:21.036Z,29.77
2023-02-13T17:12:51.831Z,36.47
2023-02-13T17:15:22.934Z,33.83
2023-02-13T17:17:52.243Z,39.43
2023-02-13T17:20:25.135Z,35.70
2023-02-13T17:22:55.732Z,31.63
2023-02-13T17:25:27.096Z,35.33
2023-02-13T17:27:58.243Z,38.63
2023-02-13T17:30:28.770Z,44.80
2023-02-13T17:33:01.150Z,58.37
2023-02-13T17:35:32.064Z,61.03
2023-02-13T17:38:19.652Z,61.00
2023-02-13T17:40:48.950Z,93.00
2023-02-13T17:46:06.923Z,79.40
2023-02-13T17:48:36.021Z,51.57
2023-02-13T17:51:06.816Z,49.63
2023-02-13T17:53:37.874Z,64.83
2023-02-13T17:56:07.073Z,70.50
2023-02-13T17:58:36.053Z,43.73
2023-02-13T18:01:05.709Z,57.27
2023-02-13T18:03:34.649Z,88.60
2023-02-13T18:06:03.669Z,72.67
2023-02-13T18:08:34.048Z,69.70
2023-02-13T18:11:03.021Z,56.47
2023-02-13T18:13:32.057Z,59.27
2023-02-13T18:16:02.082Z,47.10
2023-02-13T18:18:31.029Z,48.30
2023-02-13T18:21:00.344Z,55.77
2023-02-13T18:23:46.675Z,55.17
2023-02-13T18:26:17.100Z,53.47
2023-02-13T18:31:33.063Z,71.10
2023-02-13T18:34:02.226Z,70.93
2023-02-13T18:36:31.693Z,80.53
2023-02-13T18:39:00.873Z,80.43
2023-02-13T18:41:31.319Z,58.20
2023-02-13T18:44:00.489Z,57.50
2023-02-13T18:46:29.695Z,59.80
2023-02-13T18:48:58.747Z,65.83
2023-02-13T18:51:27.886Z,64.47
2023-02-13T18:53:56.900Z,52.77
2023-02-13T18:56:26.393Z,52.17
2023-02-13T18:58:56.871Z,59.60
2023-02-13T19:02:04.289Z,50.40
2023-02-13T19:04:36.113Z,62.57
2023-02-13T19:07:06.415Z,58.00
2023-02-13T19:09:40.392Z,54.80
2023-02-13T19:12:09.831Z,105.67
2023-02-13T19:14:40.523Z,100.03
2023-02-13T19:17:10.572Z,71.10
2023-02-13T19:19:39.784Z,75.67
2023-02-13T19:22:08.839Z,80.27
2023-02-13T19:24:54.987Z,76.67
2023-02-13T19:30:31.006Z,68.03
2023-02-13T19:33:00.184Z,62.80
2023-02-13T19:38:33.678Z,58.17
2023-02-13T19:41:05.321Z,62.87
2023-02-13T19:43:34.684Z,52.03
2023-02-13T19:46:06.377Z,48.73
2023-02-13T19:48:36.090Z,52.40
2023-02-13T19:51:08.123Z,49.97
2023-02-13T19:53:37.861Z,51.67
2023-02-13T19:56:09.205Z,46.47
2023-02-13T19:58:39.839Z,43.33
2023-02-13T20:01:11.348Z,44.33
2023-02-13T20:03:40.549Z,42.73
2023-02-13T20:06:11.559Z,41.90
2023-02-13T20:08:42.881Z,41.70
2023-02-13T20:11:14.058Z,43.80
2023-02-13T20:13:45.194Z,43.97
2023-02-13T20:22:10.136Z,42.30
2023-02-13T20:24:39.360Z,45.47
2023-02-13T20:27:10.492Z,45.33
2023-02-13T20:29:39.777Z,41.37
2023-02-13T20:32:10.445Z,44.97
2023-02-13T20:34:58.462Z,44.23
2023-02-13T20:37:28.461Z,42.87
2023-02-13T20:39:57.395Z,45.87
2023-02-13T20:42:26.602Z,47.10
2023-02-13T20:44:55.666Z,52.97
2023-02-13T20:47:26.170Z,45.00
2023-02-13T20:49:55.194Z,50.67
2023-02-13T20:52:24.410Z,48.00
2023-02-13T20:55:10.678Z,46.33
2023-02-13T20:58:00.480Z,52.80
2023-02-13T21:00:30.903Z,54.67
2023-02-13T21:03:02.389Z,51.07
2023-02-13T21:05:32.511Z,51.47
2023-02-13T21:08:02.684Z,58.37
2023-02-13T21:10:32.908Z,54.50
2023-02-13T21:13:03.261Z,58.17
2023-02-13T21:18:23.118Z,62.30
2023-02-13T21:20:52.536Z,62.87
2023-02-13T21:23:21.560Z,48.90
2023-02-13T21:25:50.557Z,49.43
2023-02-13T21:31:09.893Z,44.87
2023-02-13T21:33:40.623Z,42.37
2023-02-13T21:36:12.100Z,42.93
2023-02-13T21:38:42.127Z,47.67
2023-02-13T21:41:12.851Z,46.20
2023-02-13T21:43:46.736Z,50.67
2023-02-13T21:46:17.626Z,61.43
2023-02-13T21:48:49.240Z,47.50
2023-02-13T21:51:20.251Z,44.27
2023-02-13T21:56:40.738Z,46.50
2023-02-13T21:59:10.447Z,47.33
2023-02-13T22:01:46.596Z,49.87
2023-02-13T22:04:35.373Z,57.20
2023-02-13T22:07:04.338Z,118.20
2023-02-13T22:09:34.693Z,109.13
2023-02-13T22:12:04.451Z,64.73
2023-02-13T22:20:09.465Z,55.07
2023-02-13T22:25:25.101Z,50.30
2023-02-13T22:27:54.123Z,49.93
2023-02-13T22:30:23.268Z,49.37
2023-02-13T22:32:52.316Z,51.17
2023-02-13T22:35:22.844Z,48.83
2023-02-13T22:37:51.906Z,48.90
2023-02-13T22:40:21.207Z,52.43
2023-02-13T22:42:50.133Z,48.97
2023-02-13T22:45:19.464Z,49.30
2023-02-13T22:47:48.379Z,53.20
2023-02-13T22:50:17.588Z,49.73
2023-02-13T22:52:48.199Z,57.67
2023-02-13T22:55:17.386Z,54.47
2023-02-13T22:57:47.245Z,50.03
2023-02-13T23:00:16.893Z,51.73
2023-02-13T23:02:46.133Z,50.17
2023-02-13T23:08:03.283Z,50.67
2023-02-13T23:10:32.356Z,49.60
2023-02-13T23:13:00.282Z,49.37
2023-02-13T23:15:29.475Z,52.23
2023-02-13T23:18:15.370Z,49.37
2023-02-13T23:20:46.033Z,52.87
2023-02-13T23:23:16.505Z,62.67
2023-02-13T23:25:45.779Z,69.30
2023-02-13T23:28:14.735Z,57.53
2023-02-13T23:30:43.916Z,57.70
2023-02-13T23:33:12.984Z,52.47
2023-02-13T23:35:41.958Z,53.97
2023-02-13T23:40:59.174Z,52.17
2023-02-13T23:43:28.432Z,55.27
2023-02-13T23:48:43.504Z,54.23
2023-02-13T23:51:12.519Z,55.17
2023-02-13T23:53:41.520Z,58.43
2023-02-13T23:56:11.989Z,62.23
2023-02-13T23:58:41.011Z,65.83
